Latest Weather Observations for Spring Bay

IDT60801

Issued at 2:05 pm EST Monday 28 July 2014 (issued every 30 minutes, with the page automatically refreshed every 10 minutes)

About weather observations | Map of weather stations | Latest weather observations for TAS | Other Formats
Station Details ID: 092133 Name: SPRING BAY NTC AWS Lat: -42.55 Lon: 147.93 Height: 0.0 m
Data from the previous 72 hours. | See also: Recent months for locations in Tasmania
Date/Time
EST
Temp
°C
App
Temp
°C
Dew
Point
Rel
Hum
%
Delta-T
°C
Wind Press
QNH
hPa
Press
MSL
hPa
Rain
since 9 am
mm
Dir
 
Spd
km/h
Gust
km/h
Spd
kts
Gust
kts
28/02:00pm 15.6 - - - - WNW 26 43 14 23 1002.5 1002.5 -
28/01:30pm 14.7 - - - - NW 30 39 16 21 1002.9 - -
28/01:00pm 14.8 - - - - NW 28 37 15 20 1003.5 1003.5 -
28/12:30pm 15.4 - - - - WNW 30 46 16 25 1004.0 - -
28/12:00pm 15.6 - - - - WNW 20 41 11 22 1004.4 1004.4 -
28/11:30am 14.7 - - - - WNW 30 37 16 20 1004.8 - -
28/11:00am 14.9 - - - - WNW 30 44 16 24 1005.3 1005.3 -
28/10:30am 13.9 - - - - NW 28 33 15 18 1005.7 - -
28/10:00am 13.9 - - - - NW 30 37 16 20 1006.0 1006.0 -
28/09:30am 13.6 - - - - NNW 26 35 14 19 1006.0 - -
28/09:00am 13.8 - - - - NNW 19 24 10 13 1006.1 1006.1 -
28/08:30am 13.3 - - - - N 19 26 10 14 1006.1 - -
28/08:00am 13.2 - - - - NNW 26 35 14 19 1006.2 1006.2 -
28/07:30am 13.4 - - - - NW 33 43 18 23 1006.5 - -
28/07:00am 13.4 - - - - NW 33 46 18 25 1006.9 1006.9 -
28/06:30am 13.3 - - - - NNW 33 41 18 22 1006.4 - -
28/06:00am 13.2 - - - - NNW 28 37 15 20 1006.4 1006.4 -
28/05:30am 13.2 - - - - NNW 26 41 14 22 1006.6 - -
28/05:00am 13.0 - - - - NNW 26 35 14 19 1006.8 1006.8 -
28/04:30am 12.8 - - - - NNW 26 35 14 19 1007.2 - -
28/04:00am 12.7 - - - - NNW 22 37 12 20 1007.4 1007.4 -
28/03:30am 12.8 - - - - NNW 32 50 17 27 1007.5 - -
28/03:25am 12.8 - - - - NNW 32 50 17 27 1007.5 - -
28/03:00am 12.7 - - - - NNW 32 44 17 24 1008.0 1008.0 -
28/02:30am 12.5 - - - - NNW 30 43 16 23 1008.6 - -
28/02:00am 12.3 - - - - NNW 30 37 16 20 1008.8 1008.8 -
28/01:30am 12.1 - - - - NNW 20 24 11 13 1009.1 - -
28/01:00am 12.5 - - - - NW 24 32 13 17 1009.6 1009.6 -
28/12:30am 12.6 - - - - NNW 24 33 13 18 1009.8 - -
28/12:00am 12.5 - - - - NW 33 43 18 23 1010.2 1010.2 -
 
Date/Time
EST
Temp
°C
App
Temp
°C
Dew
Point
Rel
Hum
%
Delta-T
°C
Wind Press
QNH
hPa
Press
MSL
hPa
Rain
since 9 am
mm
Dir
 
Spd
km/h
Gust
km/h
Spd
kts
Gust
kts
27/11:30pm 12.9 - - - - NW 33 44 18 24 1010.6 - -
27/11:00pm 12.6 - - - - NW 26 35 14 19 1010.8 1010.8 -
27/10:30pm 12.6 - - - - NW 35 43 19 23 1011.3 - -
27/10:00pm 12.4 - - - - NW 35 41 19 22 1011.7 1011.7 -
27/09:30pm 12.6 - - - - NW 35 43 19 23 1012.1 - -
27/09:00pm 12.5 - - - - NW 24 33 13 18 1012.3 1012.3 -
27/08:30pm 12.5 - - - - NW 35 46 19 25 1012.5 - -
27/08:00pm 12.4 - - - - NW 32 39 17 21 1012.6 1012.6 -
27/07:30pm 12.1 - - - - NW 26 35 14 19 1013.0 - -
27/07:00pm 12.1 - - - - NNW 26 33 14 18 1012.8 1012.8 -
27/06:30pm 12.2 - - - - NNW 26 32 14 17 1013.2 - -
27/06:00pm 12.2 - - - - NW 30 41 16 22 1013.1 1013.1 -
27/05:30pm 12.4 - - - - NW 24 32 13 17 1013.3 - -
27/05:00pm 12.5 - - - - NW 35 43 19 23 1013.5 1013.5 -
27/04:30pm 12.6 - - - - NW 35 43 19 23 1013.5 - -
27/04:21pm 12.5 - - - - NW 30 41 16 22 1013.7 - -
27/04:00pm 12.4 - - - - NW 13 20 7 11 1013.9 1013.9 -
27/03:30pm 12.3 - - - - NW 32 41 17 22 1013.8 - -
27/03:00pm 11.8 - - - - NW 39 44 21 24 1014.1 1014.1 -
27/02:30pm 11.6 - - - - NW 37 44 20 24 1014.6 - -
27/02:00pm 11.7 - - - - NW 37 44 20 24 1014.8 1014.8 -
27/01:30pm 12.7 - - - - NNW 26 32 14 17 1015.1 - -
27/01:00pm 13.2 - - - - NW 22 26 12 14 1015.6 1015.6 -
27/12:30pm 12.0 - - - - W 4 13 2 7 1016.2 - -
27/12:00pm 12.0 - - - - NE 2 9 1 5 1016.7 1016.7 -
27/11:30am 11.1 - - - - S 6 9 3 5 1017.4 - -
27/11:00am 12.2 - - - - CALM 0 6 0 3 1018.1 1018.1 -
27/10:30am 11.8 - - - - SW 2 4 1 2 1018.8 - -
27/10:00am 9.4 - - - - WSW 2 7 1 4 1019.3 1019.3 -
27/09:30am 8.9 - - - - WSW 6 11 3 6 1019.7 - -
27/09:00am 6.8 - - - - W 7 13 4 7 1019.7 1019.7 -
27/08:30am 5.4 - - - - WNW 6 9 3 5 1019.7 - -
27/08:00am 4.8 - - - - NW 7 9 4 5 1019.5 1019.5 -
27/07:30am 5.3 - - - - WNW 6 11 3 6 1019.3 - -
27/07:00am 5.6 - - - - WNW 6 9 3 5 1019.4 1019.4 -
27/06:30am 5.5 - - - - WNW 2 7 1 4 1019.4 - -
27/06:00am 5.6 - - - - NW 7 11 4 6 1019.4 1019.4 -
27/05:30am 6.1 - - - - W 6 9 3 5 1019.5 - -
27/05:00am 6.8 - - - - WSW 7 13 4 7 1019.8 1019.8 -
27/04:30am 7.2 - - - - WSW 9 15 5 8 1019.8 - -
27/04:00am 7.8 - - - - SW 20 30 11 16 1019.8 1019.8 -
27/03:30am 7.2 - - - - WSW 13 20 7 11 1020.0 - -
27/03:00am 7.2 - - - - W 7 13 4 7 1020.2 1020.2 -
27/02:30am 7.2 - - - - W 9 15 5 8 1020.3 - -
27/02:00am 7.3 - - - - W 6 9 3 5 1020.7 1020.7 -
27/01:30am 7.1 - - - - NW 7 11 4 6 1020.5 - -
27/01:00am 8.2 - - - - WSW 7 11 4 6 1020.6 1020.6 -
27/12:30am 8.5 - - - - WSW 11 17 6 9 1021.0 - -
27/12:00am 8.3 - - - - NW 7 13 4 7 1021.1 1021.1 -
 
Date/Time
EST
Temp
°C
App
Temp
°C
Dew
Point
Rel
Hum
%
Delta-T
°C
Wind Press
QNH
hPa
Press
MSL
hPa
Rain
since 9 am
mm
Dir
 
Spd
km/h
Gust
km/h
Spd
kts
Gust
kts
26/11:30pm 8.8 - - - - W 6 13 3 7 1021.2 - -
26/11:00pm 8.1 - - - - W 7 15 4 8 1021.3 1021.3 -
26/10:30pm 8.3 - - - - WNW 7 11 4 6 1021.2 - -
26/10:00pm 8.2 - - - - NW 7 9 4 5 1021.1 1021.1 -
26/09:30pm 8.7 - - - - NW 6 7 3 4 1021.0 - -
26/09:00pm 9.0 - - - - W 4 7 2 4 1020.9 1020.9 -
26/08:30pm 9.7 - - - - WNW 6 9 3 5 1020.8 - -
26/08:00pm 9.7 - - - - NNW 7 9 4 5 1020.6 1020.6 -
26/07:30pm 9.9 - - - - NNW 7 9 4 5 1020.5 - -
26/07:00pm 10.4 - - - - NW 4 6 2 3 1020.4 1020.4 -
26/06:30pm 10.4 - - - - W 6 7 3 4 1020.3 - -
26/06:00pm 10.4 - - - - NW 6 9 3 5 1020.2 1020.2 -
26/05:30pm 10.9 - - - - ENE 2 4 1 2 1019.8 - -
26/05:00pm 11.6 - - - - E 4 6 2 3 1019.6 1019.6 -
26/04:30pm 12.6 - - - - ENE 6 7 3 4 1019.5 - -
26/04:00pm 13.0 - - - - ESE 6 7 3 4 1019.3 1019.3 -
26/03:30pm 13.6 - - - - ESE 6 7 3 4 1019.1 - -
26/03:00pm 13.6 - - - - ESE 7 11 4 6 1019.0 1019.0 -
26/02:30pm 13.7 - - - - ESE 7 13 4 7 1019.0 - -
26/02:00pm 14.1 - - - - ESE 9 13 5 7 1019.1 1019.1 -
26/01:30pm 13.2 - - - - ESE 7 9 4 5 1019.0 - -
26/01:00pm 12.5 - - - - SE 9 11 5 6 1019.4 1019.4 -
26/12:30pm 12.2 - - - - S 6 7 3 4 1019.5 - -
26/12:00pm 12.0 - - - - S 4 7 2 4 1019.8 1019.8 -
26/11:30am 11.6 - - - - SSW 6 9 3 5 1020.2 - -
26/11:00am 10.8 - - - - SW 17 20 9 11 1020.4 1020.4 -
26/10:30am 11.0 - - - - CALM 0 2 0 1 1020.5 - -
26/10:00am 10.3 - - - - NW 2 4 1 2 1020.5 1020.5 -
26/09:30am 9.8 - - - - W 7 13 4 7 1020.3 - -
26/09:00am 9.2 - - - - WSW 15 20 8 11 1020.3 1020.3 -
26/08:30am 8.7 - - - - W 7 11 4 6 1020.0 - -
26/08:00am 8.6 - - - - WNW 6 7 3 4 1019.8 1019.8 -
26/07:30am 8.5 - - - - WNW 4 6 2 3 1019.6 - -
26/07:00am 8.3 - - - - W 6 7 3 4 1019.4 1019.4 -
26/06:30am 8.3 - - - - NW 6 7 3 4 1019.3 - -
26/06:00am 8.4 - - - - WNW 6 7 3 4 1019.2 1019.2 -
26/05:30am 8.2 - - - - NW 4 7 2 4 1019.1 - -
26/05:00am 8.4 - - - - W 4 7 2 4 1019.0 1019.0 -
26/04:30am 8.3 - - - - WNW 6 7 3 4 1018.9 - -
26/04:00am 7.8 - - - - NW 6 7 3 4 1018.6 1018.6 -
26/03:30am 8.0 - - - - WNW 6 7 3 4 1018.6 - -
26/03:00am 7.8 - - - - NW 6 7 3 4 1018.7 1018.7 -
26/02:30am 8.0 - - - - W 2 4 1 2 1018.8 - -
26/02:00am 8.2 - - - - NW 7 9 4 5 1018.8 1018.8 -
26/01:30am 8.0 - - - - NW 6 7 3 4 1018.6 - -
26/01:00am 8.0 - - - - WNW 6 6 3 3 1018.6 1018.6 -
26/12:30am 8.1 - - - - NW 6 7 3 4 1018.7 - -

Other Formats:

Comma delimited format used in spreadsheet applications
http://www.bom.gov.au/fwo/IDT60801/IDT60801.95987.axf

JavaScript Object Notation format (JSON) in row-major order
http://www.bom.gov.au/fwo/IDT60801/IDT60801.95987.json